createdAt,value
2018-06-11T00:00:28.575Z,1008.56
2018-06-11T00:01:28.548Z,1008.52
2018-06-11T00:02:28.528Z,1008.46
2018-06-11T00:03:28.506Z,1008.42
2018-06-11T00:04:28.479Z,1008.40
2018-06-11T00:05:28.458Z,1008.40
2018-06-11T00:06:28.437Z,1008.41
2018-06-11T00:07:28.414Z,1008.42
2018-06-11T00:08:28.384Z,1008.40
2018-06-11T00:09:28.357Z,1008.41
2018-06-11T00:10:28.342Z,1008.43
2018-06-11T00:11:28.319Z,1008.41
2018-06-11T00:12:28.294Z,1008.45
2018-06-11T00:13:28.269Z,1008.43
2018-06-11T00:14:28.237Z,1008.43
2018-06-11T00:15:28.219Z,1008.42
2018-06-11T00:16:28.192Z,1008.42
2018-06-11T00:17:28.169Z,1008.41
2018-06-11T00:18:28.151Z,1008.44
2018-06-11T00:19:28.126Z,1008.46
2018-06-11T00:20:28.093Z,1008.51
2018-06-11T00:21:28.077Z,1008.48
2018-06-11T00:22:28.052Z,1008.47
2018-06-11T00:23:28.027Z,1008.47
2018-06-11T00:24:28.007Z,1008.43
2018-06-11T00:25:27.976Z,1008.45
2018-06-11T00:26:27.955Z,1008.41
2018-06-11T00:27:27.929Z,1008.44
2018-06-11T00:28:27.909Z,1008.43
2018-06-11T00:29:27.886Z,1008.41
2018-06-11T00:30:27.859Z,1008.41
2018-06-11T00:31:27.839Z,1008.40
2018-06-11T00:32:27.809Z,1008.42
2018-06-11T00:33:27.800Z,1008.45
2018-06-11T00:34:27.767Z,1008.47
2018-06-11T00:35:27.735Z,1008.48
2018-06-11T00:36:27.718Z,1008.52
2018-06-11T00:37:27.695Z,1008.46
2018-06-11T00:38:27.665Z,1008.51
2018-06-11T00:39:27.649Z,1008.48
2018-06-11T00:40:27.614Z,1008.50
2018-06-11T00:41:27.589Z,1008.52
2018-06-11T00:42:27.577Z,1008.49
2018-06-11T00:43:27.555Z,1008.52
2018-06-11T00:44:27.528Z,1008.54
2018-06-11T00:45:27.501Z,1008.52
2018-06-11T00:46:27.471Z,1008.54
2018-06-11T00:47:27.456Z,1008.50
2018-06-11T00:48:27.423Z,1008.47
2018-06-11T00:49:27.406Z,1008.48
2018-06-11T00:50:27.383Z,1008.51
2018-06-11T00:51:27.363Z,1008.51
2018-06-11T00:52:27.327Z,1008.50
2018-06-11T00:53:27.308Z,1008.46
2018-06-11T00:54:27.284Z,1008.52
2018-06-11T00:55:27.260Z,1008.49
2018-06-11T00:56:27.232Z,1008.49
2018-06-11T00:57:27.228Z,1008.52
2018-06-11T00:58:27.187Z,1008.53
2018-06-11T00:59:27.165Z,1008.50
2018-06-11T01:00:27.140Z,1008.54
2018-06-11T01:01:27.111Z,1008.56
2018-06-11T01:02:27.095Z,1008.55
2018-06-11T01:03:27.070Z,1008.57
2018-06-11T01:04:27.044Z,1008.58
2018-06-11T01:05:27.015Z,1008.54
2018-06-11T01:06:26.992Z,1008.56
2018-06-11T01:07:26.977Z,1008.55
2018-06-11T01:08:26.944Z,1008.55
2018-06-11T01:09:26.921Z,1008.51
2018-06-11T01:10:26.901Z,1008.53
2018-06-11T01:11:26.880Z,1008.54
2018-06-11T01:12:26.847Z,1008.53
2018-06-11T01:13:26.831Z,1008.52
2018-06-11T01:14:26.799Z,1008.54
2018-06-11T01:15:26.784Z,1008.54
2018-06-11T01:16:26.757Z,1008.56
2018-06-11T01:17:26.734Z,1008.55
2018-06-11T01:18:26.715Z,1008.55
2018-06-11T01:19:26.689Z,1008.53
2018-06-11T01:20:26.657Z,1008.57
2018-06-11T01:21:26.641Z,1008.58
2018-06-11T01:22:26.609Z,1008.58
2018-06-11T01:23:26.583Z,1008.58
2018-06-11T01:24:26.566Z,1008.62
2018-06-11T01:25:26.539Z,1008.61
2018-06-11T01:26:26.519Z,1008.58
2018-06-11T01:27:26.499Z,1008.60
2018-06-11T01:28:26.463Z,1008.57
2018-06-11T01:29:26.438Z,1008.56
2018-06-11T01:30:26.423Z,1008.57
2018-06-11T01:31:26.392Z,1008.57
2018-06-11T01:32:26.373Z,1008.55
2018-06-11T01:33:26.346Z,1008.54
2018-06-11T01:34:26.341Z,1008.57
2018-06-11T01:35:26.297Z,1008.55
2018-06-11T01:36:26.275Z,1008.55
2018-06-11T01:37:26.254Z,1008.51
2018-06-11T01:38:26.230Z,1008.48
2018-06-11T01:39:26.209Z,1008.53
2018-06-11T01:40:26.174Z,1008.48
2018-06-11T01:41:26.157Z,1008.47
2018-06-11T01:42:26.129Z,1008.44
2018-06-11T01:43:26.105Z,1008.46
2018-06-11T01:44:26.086Z,1008.47
2018-06-11T01:45:26.068Z,1008.42
2018-06-11T01:46:26.029Z,1008.42
2018-06-11T01:47:26.016Z,1008.39
2018-06-11T01:48:25.983Z,1008.41
2018-06-11T01:49:25.961Z,1008.38
2018-06-11T01:50:25.943Z,1008.45
2018-06-11T01:51:25.909Z,1008.41
2018-06-11T01:52:25.887Z,1008.37
2018-06-11T01:53:25.869Z,1008.37
2018-06-11T01:54:25.843Z,1008.34
2018-06-11T01:55:25.813Z,1008.32
2018-06-11T01:56:25.798Z,1008.32
2018-06-11T01:57:25.767Z,1008.30
2018-06-11T01:58:25.746Z,1008.33
2018-06-11T01:59:25.724Z,1008.34
2018-06-11T02:00:25.702Z,1008.34
2018-06-11T02:01:25.672Z,1008.30
2018-06-11T02:02:25.652Z,1008.26
2018-06-11T02:03:25.629Z,1008.21
2018-06-11T02:04:25.598Z,1008.22
2018-06-11T02:05:25.576Z,1008.16
2018-06-11T02:06:25.548Z,1008.15
2018-06-11T02:07:25.529Z,1008.11
2018-06-11T02:08:25.497Z,1008.11
2018-06-11T02:09:25.476Z,1008.08
2018-06-11T02:10:25.456Z,1008.12
2018-06-11T02:11:25.429Z,1008.08
2018-06-11T02:12:25.408Z,1008.08
2018-06-11T02:13:25.386Z,1008.09
2018-06-11T02:14:25.355Z,1008.07
2018-06-11T02:15:25.336Z,1008.10
2018-06-11T02:16:25.307Z,1008.11
2018-06-11T02:17:25.295Z,1008.12
2018-06-11T02:18:25.260Z,1008.14
2018-06-11T02:19:25.244Z,1008.06
2018-06-11T02:20:25.215Z,1008.09
2018-06-11T02:21:25.189Z,1008.06
2018-06-11T02:22:25.169Z,1008.10
2018-06-11T02:23:25.144Z,1008.06
2018-06-11T02:24:25.113Z,1008.15
2018-06-11T02:25:25.090Z,1008.09
2018-06-11T02:26:25.074Z,1008.08
2018-06-11T02:27:25.048Z,1008.09
2018-06-11T02:28:25.021Z,1008.12
2018-06-11T02:29:25.000Z,1008.12
2018-06-11T02:30:24.967Z,1008.14
2018-06-11T02:31:24.946Z,1008.13
2018-06-11T02:32:24.917Z,1008.14
2018-06-11T02:33:24.893Z,1008.13
2018-06-11T02:34:24.878Z,1008.09
2018-06-11T02:35:24.846Z,1008.05
2018-06-11T02:36:24.826Z,1008.05
2018-06-11T02:37:24.801Z,1008.07
2018-06-11T02:38:24.775Z,1008.02
2018-06-11T02:39:24.756Z,1008.02
2018-06-11T02:40:24.735Z,1007.98
2018-06-11T02:41:24.705Z,1007.93
2018-06-11T02:42:24.681Z,1007.93
2018-06-11T02:43:24.655Z,1007.85
2018-06-11T02:44:24.637Z,1007.86
2018-06-11T02:45:24.610Z,1007.85
2018-06-11T02:46:24.597Z,1007.85
2018-06-11T02:47:24.561Z,1007.89
2018-06-11T02:48:24.535Z,1007.88
2018-06-11T02:49:24.516Z,1007.91
2018-06-11T02:50:24.482Z,1007.87
2018-06-11T02:51:24.467Z,1007.90
2018-06-11T02:52:24.443Z,1007.88
2018-06-11T02:53:24.415Z,1007.86
2018-06-11T02:54:24.397Z,1007.86
2018-06-11T02:55:24.368Z,1007.89
2018-06-11T02:56:24.341Z,1007.90
2018-06-11T02:57:24.315Z,1007.95
2018-06-11T02:58:24.299Z,1007.91
2018-06-11T02:59:24.271Z,1007.90
2018-06-11T03:00:24.244Z,1007.95
2018-06-11T03:01:24.227Z,1007.93
2018-06-11T03:02:24.246Z,1007.90
2018-06-11T03:03:24.184Z,1007.96
2018-06-11T03:04:24.151Z,1007.92
2018-06-11T03:05:24.120Z,1007.94
2018-06-11T03:06:24.105Z,1007.93
2018-06-11T03:07:24.078Z,1007.96
2018-06-11T03:08:24.053Z,1007.97
2018-06-11T03:09:24.033Z,1007.98
2018-06-11T03:10:23.999Z,1007.92
2018-06-11T03:11:23.979Z,1007.93
2018-06-11T03:12:23.954Z,1007.90
2018-06-11T03:13:23.935Z,1007.86
2018-06-11T03:14:23.904Z,1007.89
2018-06-11T03:15:23.883Z,1007.82
2018-06-11T03:16:23.862Z,1007.80
2018-06-11T03:17:23.835Z,1007.78
2018-06-11T03:18:23.816Z,1007.76
2018-06-11T03:19:23.801Z,1007.77
2018-06-11T03:20:23.761Z,1007.78
2018-06-11T03:21:23.740Z,1007.77
2018-06-11T03:22:23.726Z,1007.75
2018-06-11T03:23:23.697Z,1007.76
2018-06-11T03:24:23.669Z,1007.78
2018-06-11T03:25:23.639Z,1007.81
2018-06-11T03:26:23.616Z,1007.82
2018-06-11T03:27:23.596Z,1007.86
2018-06-11T03:28:23.570Z,1007.93
2018-06-11T03:29:23.543Z,1007.84
2018-06-11T03:30:23.527Z,1007.85
2018-06-11T03:31:23.496Z,1007.85
2018-06-11T03:32:23.486Z,1007.82
2018-06-11T03:33:23.455Z,1007.89
2018-06-11T03:34:23.422Z,1007.93
2018-06-11T03:35:23.408Z,1007.97
2018-06-11T03:36:23.372Z,1007.92
2018-06-11T03:37:23.357Z,1007.96
2018-06-11T03:38:23.336Z,1007.97
2018-06-11T03:39:23.308Z,1007.98
2018-06-11T03:40:23.284Z,1008.03
2018-06-11T03:41:23.254Z,1008.01
2018-06-11T03:42:23.247Z,1008.07
2018-06-11T03:43:23.214Z,1008.01
2018-06-11T03:44:23.181Z,1008.07
2018-06-11T03:45:23.164Z,1008.08
2018-06-11T03:46:23.133Z,1008.04
2018-06-11T03:47:23.111Z,1008.08
2018-06-11T03:48:23.089Z,1008.07
2018-06-11T03:49:23.059Z,1008.12
2018-06-11T03:50:23.044Z,1008.14
2018-06-11T03:51:23.018Z,1008.15
2018-06-11T03:52:22.988Z,1008.15
2018-06-11T03:53:22.963Z,1008.15
2018-06-11T03:54:22.942Z,1008.16
2018-06-11T03:55:22.924Z,1008.16
2018-06-11T03:56:22.886Z,1008.19
2018-06-11T03:57:22.869Z,1008.18
2018-06-11T03:58:22.845Z,1008.22
2018-06-11T03:59:22.814Z,1008.23
2018-06-11T04:00:22.799Z,1008.24
2018-06-11T04:01:22.766Z,1008.29
2018-06-11T04:02:22.756Z,1008.30
2018-06-11T04:03:22.722Z,1008.31
2018-06-11T04:04:22.704Z,1008.31
2018-06-11T04:05:22.677Z,1008.35
2018-06-11T04:06:22.645Z,1008.30
2018-06-11T04:07:22.623Z,1008.32
2018-06-11T04:08:22.605Z,1008.30
2018-06-11T04:09:22.574Z,1008.28
2018-06-11T04:10:22.558Z,1008.29
2018-06-11T04:11:22.524Z,1008.31
2018-06-11T04:12:22.507Z,1008.28
2018-06-11T04:13:22.483Z,1008.29
2018-06-11T04:14:22.458Z,1008.29
2018-06-11T04:15:22.435Z,1008.31
2018-06-11T04:16:22.400Z,1008.39
2018-06-11T04:17:22.378Z,1008.34
2018-06-11T04:18:22.358Z,1008.39
2018-06-11T04:19:22.333Z,1008.34
2018-06-11T04:20:22.310Z,1008.42
2018-06-11T04:21:22.281Z,1008.40
2018-06-11T04:22:22.261Z,1008.41
2018-06-11T04:23:22.233Z,1008.41
2018-06-11T04:24:22.210Z,1008.46
2018-06-11T04:25:22.182Z,1008.43
2018-06-11T04:26:22.162Z,1008.43
2018-06-11T04:27:22.142Z,1008.46
2018-06-11T04:28:22.113Z,1008.43
2018-06-11T04:29:22.092Z,1008.43
2018-06-11T04:30:22.062Z,1008.43
2018-06-11T04:31:22.050Z,1008.43
2018-06-11T04:32:22.013Z,1008.45
2018-06-11T04:33:21.992Z,1008.48
2018-06-11T04:34:21.968Z,1008.46
2018-06-11T04:35:21.947Z,1008.52
2018-06-11T04:36:21.914Z,1008.48
2018-06-11T04:37:21.889Z,1008.51
2018-06-11T04:38:21.876Z,1008.48
2018-06-11T04:39:21.841Z,1008.46
2018-06-11T04:40:21.821Z,1008.49
2018-06-11T04:41:21.795Z,1008.47
2018-06-11T04:42:21.768Z,1008.49
2018-06-11T04:43:21.746Z,1008.52
2018-06-11T04:44:21.727Z,1008.56
2018-06-11T04:45:21.736Z,1008.53
2018-06-11T04:46:21.673Z,1008.54
2018-06-11T04:47:21.652Z,1008.44
2018-06-11T04:48:21.619Z,1008.50
2018-06-11T04:49:21.597Z,1008.46
2018-06-11T04:50:21.574Z,1008.51
2018-06-11T04:51:21.547Z,1008.48
2018-06-11T04:52:21.526Z,1008.55
2018-06-11T04:53:21.501Z,1008.53
2018-06-11T04:54:21.473Z,1008.58
2018-06-11T04:55:21.457Z,1008.53
2018-06-11T04:56:21.423Z,1008.51
2018-06-11T04:57:21.399Z,1008.58
2018-06-11T04:58:21.378Z,1008.54
2018-06-11T04:59:21.364Z,1008.54
2018-06-11T05:00:21.332Z,1008.53
2018-06-11T05:01:21.304Z,1008.56
2018-06-11T05:02:21.272Z,1008.52
2018-06-11T05:03:21.250Z,1008.52
2018-06-11T05:04:21.232Z,1008.54
2018-06-11T05:05:21.206Z,1008.51
2018-06-11T05:06:21.179Z,1008.44
2018-06-11T05:07:21.152Z,1008.42
2018-06-11T05:08:21.135Z,1008.46
2018-06-11T05:09:21.103Z,1008.53
2018-06-11T05:10:21.083Z,1008.48
2018-06-11T05:11:21.065Z,1008.48
2018-06-11T05:12:21.028Z,1008.51
2018-06-11T05:13:21.006Z,1008.52
2018-06-11T05:14:20.988Z,1008.48
2018-06-11T05:15:20.954Z,1008.50
2018-06-11T05:16:20.942Z,1008.48
2018-06-11T05:17:20.906Z,1008.48
2018-06-11T05:18:20.881Z,1008.41
2018-06-11T05:19:20.871Z,1008.43
2018-06-11T05:20:20.834Z,1008.41
2018-06-11T05:21:20.813Z,1008.40
2018-06-11T05:22:20.795Z,1008.35
2018-06-11T05:23:20.763Z,1008.40
2018-06-11T05:24:20.737Z,1008.38
2018-06-11T05:25:20.720Z,1008.33
2018-06-11T05:26:20.703Z,1008.36
2018-06-11T05:27:20.663Z,1008.39
2018-06-11T05:28:20.647Z,1008.40
2018-06-11T05:29:20.630Z,1008.35
2018-06-11T05:30:20.597Z,1008.39
2018-06-11T05:31:20.571Z,1008.36
2018-06-11T05:32:20.558Z,1008.35
2018-06-11T05:33:20.526Z,1008.38
2018-06-11T05:34:20.503Z,1008.34
2018-06-11T05:35:20.478Z,1008.35
2018-06-11T05:36:20.473Z,1008.34
2018-06-11T05:37:20.422Z,1008.36
2018-06-11T05:38:20.414Z,1008.39
2018-06-11T05:39:20.380Z,1008.43
2018-06-11T05:40:20.365Z,1008.40
2018-06-11T05:41:20.328Z,1008.44
2018-06-11T05:42:20.302Z,1008.42
2018-06-11T05:43:20.278Z,1008.40
2018-06-11T05:44:20.261Z,1008.36
2018-06-11T05:45:20.229Z,1008.35
2018-06-11T05:46:20.208Z,1008.36
2018-06-11T05:47:20.187Z,1008.45
2018-06-11T05:48:20.161Z,1008.44
2018-06-11T05:49:20.136Z,1008.47
2018-06-11T05:50:20.109Z,1008.48
2018-06-11T05:51:20.087Z,1008.52
2018-06-11T05:52:20.079Z,1008.58
2018-06-11T05:53:20.064Z,1008.57
2018-06-11T05:54:20.012Z,1008.56
2018-06-11T05:55:19.986Z,1008.58
2018-06-11T05:56:19.977Z,1008.66
2018-06-11T05:57:19.935Z,1008.59
2018-06-11T05:58:19.917Z,1008.63
2018-06-11T05:59:19.897Z,1008.62
2018-06-11T06:00:19.861Z,1008.59
2018-06-11T06:01:19.844Z,1008.60
2018-06-11T06:02:19.817Z,1008.58
2018-06-11T06:03:19.794Z,1008.59
2018-06-11T06:04:19.773Z,1008.65
2018-06-11T06:05:19.750Z,1008.63
2018-06-11T06:06:19.730Z,1008.65
2018-06-11T06:07:19.703Z,1008.71
2018-06-11T06:08:19.668Z,1008.73
2018-06-11T06:09:19.646Z,1008.73
2018-06-11T06:10:19.625Z,1008.73
2018-06-11T06:11:19.604Z,1008.76
2018-06-11T06:12:19.580Z,1008.77
2018-06-11T06:13:19.550Z,1008.79
2018-06-11T06:14:19.552Z,1008.77
2018-06-11T06:15:19.504Z,1008.78
2018-06-11T06:16:19.490Z,1008.80
2018-06-11T06:17:19.454Z,1008.80
2018-06-11T06:18:19.434Z,1008.81
2018-06-11T06:19:19.405Z,1008.82
2018-06-11T06:20:19.384Z,1008.80
2018-06-11T06:21:19.356Z,1008.80
2018-06-11T06:22:19.336Z,1008.78
2018-06-11T06:23:19.313Z,1008.77
2018-06-11T06:24:19.295Z,1008.76
2018-06-11T06:25:19.279Z,1008.78
2018-06-11T06:26:19.246Z,1008.76
2018-06-11T06:27:19.211Z,1008.76
2018-06-11T06:28:19.194Z,1008.70
2018-06-11T06:29:19.173Z,1008.72
2018-06-11T06:30:19.151Z,1008.73
2018-06-11T06:31:19.126Z,1008.75
2018-06-11T06:32:19.091Z,1008.79
2018-06-11T06:33:19.073Z,1008.78
2018-06-11T06:34:19.281Z,1008.83
2018-06-11T06:35:19.027Z,1008.85
2018-06-11T06:36:19.004Z,1008.81
2018-06-11T06:37:18.981Z,1008.82
2018-06-11T06:38:18.961Z,1008.88
2018-06-11T06:39:18.939Z,1008.85
2018-06-11T06:40:18.900Z,1008.86
2018-06-11T06:41:18.886Z,1008.88
2018-06-11T06:42:18.852Z,1008.86
2018-06-11T06:43:18.831Z,1008.84
2018-06-11T06:44:18.818Z,1008.90
2018-06-11T06:45:18.782Z,1008.91
2018-06-11T06:46:18.764Z,1008.90
2018-06-11T06:47:18.738Z,1008.91
2018-06-11T06:48:18.729Z,1008.92
2018-06-11T06:49:18.687Z,1008.87
2018-06-11T06:50:18.667Z,1008.93
2018-06-11T06:51:18.643Z,1008.93
2018-06-11T06:52:18.616Z,1008.91
2018-06-11T06:53:18.588Z,1008.96
2018-06-11T06:54:18.567Z,1008.96
2018-06-11T06:55:18.550Z,1009.00
2018-06-11T06:56:18.519Z,1008.98
2018-06-11T06:57:18.490Z,1008.98
2018-06-11T06:58:18.477Z,1008.98
2018-06-11T06:59:18.450Z,1008.96
2018-06-11T07:00:18.430Z,1008.98
2018-06-11T07:01:18.405Z,1008.95
2018-06-11T07:02:18.376Z,1008.95
2018-06-11T07:03:18.357Z,1008.97
2018-06-11T07:04:18.324Z,1008.98
2018-06-11T07:05:18.300Z,1009.00
2018-06-11T07:06:18.279Z,1008.98
2018-06-11T07:07:18.259Z,1009.03
2018-06-11T07:08:18.241Z,1009.03
2018-06-11T07:09:18.217Z,1009.04
2018-06-11T07:10:18.186Z,1008.99
2018-06-11T07:11:18.165Z,1009.00
2018-06-11T07:12:18.136Z,1008.96
2018-06-11T07:13:18.117Z,1008.96
2018-06-11T07:14:18.086Z,1008.97
2018-06-11T07:15:18.064Z,1008.97
2018-06-11T07:16:18.041Z,1008.96
2018-06-11T07:17:18.014Z,1008.96
2018-06-11T07:18:18.038Z,1008.93
2018-06-11T07:19:17.973Z,1008.95
2018-06-11T07:20:18.015Z,1008.97
2018-06-11T07:21:17.928Z,1008.98
2018-06-11T07:22:17.900Z,1008.94
2018-06-11T07:23:17.877Z,1008.98
2018-06-11T07:24:17.855Z,1008.93
2018-06-11T07:25:17.824Z,1008.93
2018-06-11T07:26:17.808Z,1008.92
2018-06-11T07:27:17.785Z,1008.93
2018-06-11T07:28:17.764Z,1008.94
2018-06-11T07:29:17.728Z,1008.96
2018-06-11T07:30:17.714Z,1008.99
2018-06-11T07:31:17.744Z,1009.05
2018-06-11T07:32:17.670Z,1009.02
2018-06-11T07:33:17.641Z,1009.03
2018-06-11T07:34:17.610Z,1009.02
2018-06-11T07:35:17.591Z,1008.96
2018-06-11T07:36:17.569Z,1009.00
2018-06-11T07:37:17.538Z,1008.90
2018-06-11T07:38:17.527Z,1008.95
2018-06-11T07:39:17.501Z,1008.92
2018-06-11T07:40:17.471Z,1008.96
2018-06-11T07:41:17.459Z,1008.92
2018-06-11T07:42:17.425Z,1008.96
2018-06-11T07:43:17.401Z,1008.97
2018-06-11T07:44:17.386Z,1008.97
2018-06-11T07:45:17.370Z,1009.00
2018-06-11T07:46:17.329Z,1009.07
2018-06-11T07:47:17.316Z,1009.10
2018-06-11T07:48:17.293Z,1009.03
2018-06-11T07:49:17.261Z,1009.06
2018-06-11T07:50:17.247Z,1009.11
2018-06-11T07:51:17.221Z,1009.03
2018-06-11T07:52:17.193Z,1009.00
2018-06-11T07:53:17.170Z,1009.02
2018-06-11T07:54:17.159Z,1009.10
2018-06-11T07:55:17.124Z,1009.00
2018-06-11T07:56:17.103Z,1008.97
2018-06-11T07:57:17.080Z,1008.95
2018-06-11T07:58:17.057Z,1008.90
2018-06-11T07:59:17.043Z,1008.91
2018-06-11T08:00:17.003Z,1008.93
2018-06-11T08:01:17.017Z,1008.90
2018-06-11T08:02:16.969Z,1008.91
2018-06-11T08:03:16.942Z,1008.90
2018-06-11T08:04:16.917Z,1008.94
2018-06-11T08:05:16.899Z,1008.93
2018-06-11T08:06:16.883Z,1008.90
2018-06-11T08:07:16.850Z,1008.90
2018-06-11T08:08:16.825Z,1008.91
2018-06-11T08:09:16.799Z,1008.96
2018-06-11T08:10:16.781Z,1008.95
2018-06-11T08:11:16.756Z,1008.96
2018-06-11T08:12:16.758Z,1008.96
2018-06-11T08:13:16.712Z,1008.90
2018-06-11T08:14:16.682Z,1008.92
2018-06-11T08:15:16.682Z,1008.93
2018-06-11T08:16:16.635Z,1008.93
2018-06-11T08:17:16.619Z,1008.91
2018-06-11T08:18:16.589Z,1008.96
2018-06-11T08:19:16.573Z,1008.96
2018-06-11T08:20:16.540Z,1008.96
2018-06-11T08:21:16.518Z,1008.98
2018-06-11T08:22:16.533Z,1009.05
2018-06-11T08:23:16.474Z,1009.00
2018-06-11T08:24:16.455Z,1009.00
2018-06-11T08:25:16.440Z,1008.99
2018-06-11T08:26:16.401Z,1008.97
2018-06-11T08:27:16.386Z,1008.96
2018-06-11T08:28:16.354Z,1008.91
2018-06-11T08:29:16.330Z,1008.95
2018-06-11T08:30:16.318Z,1008.92
2018-06-11T08:31:16.290Z,1008.91
2018-06-11T08:32:16.289Z,1008.89
2018-06-11T08:33:16.237Z,1008.91
2018-06-11T08:34:16.224Z,1008.93
2018-06-11T08:35:16.192Z,1008.89
2018-06-11T08:36:16.179Z,1008.90
2018-06-11T08:37:16.152Z,1008.90
2018-06-11T08:38:16.121Z,1008.92
2018-06-11T08:39:16.108Z,1008.93
2018-06-11T08:40:16.075Z,1008.91
2018-06-11T08:41:16.053Z,1008.84
2018-06-11T08:42:16.042Z,1008.81
2018-06-11T08:43:16.048Z,1008.76
2018-06-11T08:44:15.984Z,1008.78
2018-06-11T08:45:15.971Z,1008.81
2018-06-11T08:46:15.934Z,1008.80
2018-06-11T08:47:15.915Z,1008.77
2018-06-11T08:48:15.894Z,1008.79
2018-06-11T08:49:15.868Z,1008.79
2018-06-11T08:50:15.850Z,1008.80
2018-06-11T08:51:15.830Z,1008.78
2018-06-11T08:52:15.798Z,1008.74
2018-06-11T08:53:15.779Z,1008.81
2018-06-11T08:54:15.752Z,1008.77
2018-06-11T08:55:15.727Z,1008.73
2018-06-11T08:56:15.716Z,1008.68
2018-06-11T08:57:15.685Z,1008.72
2018-06-11T08:58:15.667Z,1008.65
2018-06-11T08:59:15.637Z,1008.61
2018-06-11T09:00:15.626Z,1008.62
2018-06-11T09:01:15.665Z,1008.63
2018-06-11T09:02:15.566Z,1008.66
2018-06-11T09:03:15.547Z,1008.63
2018-06-11T09:04:15.526Z,1008.61
2018-06-11T09:05:15.499Z,1008.57
2018-06-11T09:06:15.487Z,1008.59
2018-06-11T09:07:15.449Z,1008.59
2018-06-11T09:08:15.433Z,1008.61
2018-06-11T09:09:15.413Z,1008.63
2018-06-11T09:10:15.380Z,1008.71
2018-06-11T09:11:15.358Z,1008.64
2018-06-11T09:12:15.333Z,1008.69
2018-06-11T09:13:15.309Z,1008.69
2018-06-11T09:14:15.296Z,1008.71
2018-06-11T09:15:15.373Z,1008.72
2018-06-11T09:16:15.245Z,1008.70
2018-06-11T09:17:15.229Z,1008.72
2018-06-11T09:18:15.365Z,1008.64
2018-06-11T09:19:15.181Z,1008.64
2018-06-11T09:20:15.149Z,1008.65
2018-06-11T09:21:15.132Z,1008.58
2018-06-11T09:22:15.110Z,1008.57
2018-06-11T09:23:15.086Z,1008.56
2018-06-11T09:24:15.064Z,1008.51
2018-06-11T09:25:15.042Z,1008.55
2018-06-11T09:26:15.023Z,1008.52
2018-06-11T09:27:14.996Z,1008.51
2018-06-11T09:28:14.974Z,1008.52
2018-06-11T09:29:14.963Z,1008.53
2018-06-11T09:30:14.923Z,1008.54
2018-06-11T09:31:14.909Z,1008.47
2018-06-11T09:32:14.878Z,1008.55
2018-06-11T09:33:14.853Z,1008.48
2018-06-11T09:34:14.841Z,1008.54
2018-06-11T09:35:14.820Z,1008.49
2018-06-11T09:36:14.790Z,1008.53
2018-06-11T09:37:14.769Z,1008.48
2018-06-11T09:38:14.797Z,1008.46
2018-06-11T09:39:14.719Z,1008.49
2018-06-11T09:40:14.705Z,1008.50
2018-06-11T09:41:14.678Z,1008.49
2018-06-11T09:42:14.657Z,1008.52
2018-06-11T09:43:14.636Z,1008.52
2018-06-11T09:44:14.658Z,1008.55
2018-06-11T09:45:14.597Z,1008.55
2018-06-11T09:46:14.561Z,1008.60
2018-06-11T09:47:14.539Z,1008.60
2018-06-11T09:48:14.519Z,1008.57
2018-06-11T09:49:14.592Z,1008.54
2018-06-11T09:50:14.481Z,1008.60
2018-06-11T09:51:14.475Z,1008.64
2018-06-11T09:52:14.440Z,1008.61
2018-06-11T09:53:14.405Z,1008.62
2018-06-11T09:54:14.397Z,1008.63
2018-06-11T09:55:14.363Z,1008.70
2018-06-11T09:56:14.350Z,1008.70
2018-06-11T09:57:14.327Z,1008.62
2018-06-11T09:58:14.292Z,1008.66
2018-06-11T09:59:14.283Z,1008.65
2018-06-11T10:00:14.274Z,1008.62
2018-06-11T10:01:14.238Z,1008.65
2018-06-11T10:02:14.216Z,1008.62
2018-06-11T10:03:14.205Z,1008.63
2018-06-11T10:04:14.167Z,1008.62
2018-06-11T10:05:14.151Z,1008.65
2018-06-11T10:06:14.129Z,1008.63
2018-06-11T10:07:14.102Z,1008.62
2018-06-11T10:08:14.083Z,1008.61
2018-06-11T10:09:14.060Z,1008.67
2018-06-11T10:10:14.042Z,1008.68
2018-06-11T10:11:14.016Z,1008.69
2018-06-11T10:12:14.055Z,1008.72
2018-06-11T10:13:13.974Z,1008.74
2018-06-11T10:14:13.950Z,1008.70
2018-06-11T10:15:13.934Z,1008.64
2018-06-11T10:16:13.910Z,1008.66
2018-06-11T10:17:13.890Z,1008.66
2018-06-11T10:18:13.860Z,1008.65
2018-06-11T10:19:13.847Z,1008.63
2018-06-11T10:20:13.825Z,1008.67
2018-06-11T10:21:13.800Z,1008.66
2018-06-11T10:22:13.781Z,1008.69
2018-06-11T10:23:13.762Z,1008.74
2018-06-11T10:24:13.741Z,1008.80
2018-06-11T10:25:13.708Z,1008.72
2018-06-11T10:26:13.697Z,1008.75
2018-06-11T10:27:13.668Z,1008.80
2018-06-11T10:28:13.651Z,1008.74
2018-06-11T10:29:13.629Z,1008.76
2018-06-11T10:30:13.600Z,1008.76
2018-06-11T10:31:13.589Z,1008.70
2018-06-11T10:32:13.567Z,1008.67
2018-06-11T10:33:13.544Z,1008.70
2018-06-11T10:34:13.519Z,1008.66
2018-06-11T10:35:13.504Z,1008.64
2018-06-11T10:36:13.475Z,1008.58
2018-06-11T10:37:13.449Z,1008.62
2018-06-11T10:38:13.430Z,1008.58
2018-06-11T10:39:13.461Z,1008.58
2018-06-11T10:40:13.383Z,1008.63
2018-06-11T10:41:13.365Z,1008.63
2018-06-11T10:42:13.333Z,1008.63
2018-06-11T10:43:13.320Z,1008.65
2018-06-11T10:44:13.300Z,1008.63
2018-06-11T10:45:13.269Z,1008.60
2018-06-11T10:46:13.255Z,1008.60
2018-06-11T10:47:13.232Z,1008.53
2018-06-11T10:48:13.227Z,1008.58
2018-06-11T10:49:13.188Z,1008.55
2018-06-11T10:50:13.159Z,1008.51
2018-06-11T10:51:13.140Z,1008.51
2018-06-11T10:52:13.114Z,1008.53
2018-06-11T10:53:13.100Z,1008.53
2018-06-11T10:54:13.078Z,1008.50
2018-06-11T10:55:13.048Z,1008.48
2018-06-11T10:56:13.035Z,1008.54
2018-06-11T10:57:13.004Z,1008.47
2018-06-11T10:58:12.991Z,1008.48
2018-06-11T10:59:12.961Z,1008.51
2018-06-11T11:00:12.953Z,1008.51
2018-06-11T11:01:12.935Z,1008.45
2018-06-11T11:02:12.894Z,1008.50
2018-06-11T11:03:12.884Z,1008.47
2018-06-11T11:04:12.851Z,1008.43
2018-06-11T11:05:12.835Z,1008.41
2018-06-11T11:06:12.819Z,1008.41
2018-06-11T11:07:12.800Z,1008.41
2018-06-11T11:08:12.775Z,1008.41
2018-06-11T11:09:12.749Z,1008.39
2018-06-11T11:10:12.725Z,1008.38
2018-06-11T11:11:12.710Z,1008.40
2018-06-11T11:12:12.678Z,1008.33
2018-06-11T11:13:12.743Z,1008.38
2018-06-11T11:14:12.642Z,1008.30
2018-06-11T11:15:12.618Z,1008.31
2018-06-11T11:16:12.602Z,1008.27
2018-06-11T11:17:12.577Z,1008.27
2018-06-11T11:18:12.552Z,1008.29
2018-06-11T11:19:12.534Z,1008.26
2018-06-11T11:20:12.509Z,1008.26
2018-06-11T11:21:12.487Z,1008.22
2018-06-11T11:22:12.469Z,1008.25
2018-06-11T11:23:12.452Z,1008.21
2018-06-11T11:24:12.422Z,1008.23
2018-06-11T11:25:12.397Z,1008.16
2018-06-11T11:26:12.378Z,1008.21
2018-06-11T11:27:12.355Z,1008.19
2018-06-11T11:28:12.342Z,1008.16
2018-06-11T11:29:12.312Z,1008.20
2018-06-11T11:30:12.299Z,1008.15
2018-06-11T11:31:12.274Z,1008.11
2018-06-11T11:32:12.256Z,1008.03
2018-06-11T11:33:12.234Z,1008.08
2018-06-11T11:34:12.204Z,1008.14
2018-06-11T11:35:12.194Z,1008.14
2018-06-11T11:36:12.162Z,1008.06
2018-06-11T11:37:12.147Z,1008.02
2018-06-11T11:38:12.121Z,1008.07
2018-06-11T11:39:12.107Z,1008.04
2018-06-11T11:40:12.077Z,1008.05
2018-06-11T11:41:12.070Z,1008.08
2018-06-11T11:42:12.036Z,1008.01
2018-06-11T11:43:12.015Z,1008.03
2018-06-11T11:44:11.987Z,1008.01
2018-06-11T11:45:11.978Z,1007.99
2018-06-11T11:46:11.946Z,1007.92
2018-06-11T11:47:11.929Z,1007.93
2018-06-11T11:48:11.910Z,1007.88
2018-06-11T11:49:11.882Z,1007.95
2018-06-11T11:50:11.870Z,1007.99
2018-06-11T11:51:11.873Z,1008.03
2018-06-11T11:52:11.828Z,1008.02
2018-06-11T11:53:11.797Z,1008.02
2018-06-11T11:54:11.781Z,1008.00
2018-06-11T11:55:11.763Z,1007.98
2018-06-11T11:56:11.742Z,1007.90
2018-06-11T11:57:11.722Z,1007.85
2018-06-11T11:58:11.714Z,1007.91
2018-06-11T11:59:11.729Z,1007.87
2018-06-11T12:00:11.658Z,1007.90
2018-06-11T12:01:11.643Z,1007.87
2018-06-11T12:02:11.622Z,1007.79
2018-06-11T12:03:11.611Z,1007.79
2018-06-11T12:04:11.597Z,1007.81
2018-06-11T12:05:11.572Z,1007.77